sensor_id;sensor_type;location;lat;lon;timestamp;P1;durP1;ratioP1;P2;durP2;ratioP2
16854;SDS011;8543;54.522;18.550;2022-08-18T00:02:11;42.50;;;24.20;;
16854;SDS011;8543;54.522;18.550;2022-08-18T00:04:39;43.40;;;24.80;;
16854;SDS011;8543;54.522;18.550;2022-08-18T00:07:05;39.60;;;24.00;;
16854;SDS011;8543;54.522;18.550;2022-08-18T00:09:34;34.60;;;21.60;;
16854;SDS011;8543;54.522;18.550;2022-08-18T00:12:01;37.80;;;22.70;;
16854;SDS011;8543;54.522;18.550;2022-08-18T00:14:28;42.50;;;22.70;;
16854;SDS011;8543;54.522;18.550;2022-08-18T00:16:53;40.80;;;23.40;;
16854;SDS011;8543;54.522;18.550;2022-08-18T00:19:20;32.60;;;21.40;;
16854;SDS011;8543;54.522;18.550;2022-08-18T00:21:46;38.80;;;21.80;;
16854;SDS011;8543;54.522;18.550;2022-08-18T00:24:12;32.50;;;21.00;;
16854;SDS011;8543;54.522;18.550;2022-08-18T00:26:37;36.00;;;21.70;;
16854;SDS011;8543;54.522;18.550;2022-08-18T00:29:02;32.50;;;21.40;;
16854;SDS011;8543;54.522;18.550;2022-08-18T00:31:28;37.10;;;22.60;;
16854;SDS011;8543;54.522;18.550;2022-08-18T00:33:53;36.80;;;21.10;;
16854;SDS011;8543;54.522;18.550;2022-08-18T00:36:19;36.10;;;21.90;;
16854;SDS011;8543;54.522;18.550;2022-08-18T00:38:44;38.10;;;21.80;;
16854;SDS011;8543;54.522;18.550;2022-08-18T00:41:10;39.40;;;23.20;;
16854;SDS011;8543;54.522;18.550;2022-08-18T00:43:46;38.20;;;24.00;;
16854;SDS011;8543;54.522;18.550;2022-08-18T00:46:14;34.70;;;22.40;;
16854;SDS011;8543;54.522;18.550;2022-08-18T00:48:42;38.30;;;22.60;;
16854;SDS011;8543;54.522;18.550;2022-08-18T00:51:18;38.20;;;22.60;;
16854;SDS011;8543;54.522;18.550;2022-08-18T00:54:08;40.80;;;25.00;;
16854;SDS011;8543;54.522;18.550;2022-08-18T00:56:44;41.30;;;23.10;;
16854;SDS011;8543;54.522;18.550;2022-08-18T01:01:52;38.80;;;23.40;;
16854;SDS011;8543;54.522;18.550;2022-08-18T01:04:30;38.20;;;22.40;;
16854;SDS011;8543;54.522;18.550;2022-08-18T01:07:04;40.50;;;23.50;;
16854;SDS011;8543;54.522;18.550;2022-08-18T01:09:32;45.70;;;24.40;;
16854;SDS011;8543;54.522;18.550;2022-08-18T01:11:58;42.00;;;23.40;;
16854;SDS011;8543;54.522;18.550;2022-08-18T01:14:23;40.10;;;23.10;;
16854;SDS011;8543;54.522;18.550;2022-08-18T01:16:49;38.20;;;23.20;;
16854;SDS011;8543;54.522;18.550;2022-08-18T01:19:33;40.40;;;24.50;;
16854;SDS011;8543;54.522;18.550;2022-08-18T01:24:57;36.60;;;22.20;;
16854;SDS011;8543;54.522;18.550;2022-08-18T01:27:42;39.20;;;22.90;;
16854;SDS011;8543;54.522;18.550;2022-08-18T01:30:09;39.70;;;24.30;;
16854;SDS011;8543;54.522;18.550;2022-08-18T01:32:37;41.60;;;24.40;;
16854;SDS011;8543;54.522;18.550;2022-08-18T01:35:03;39.40;;;24.00;;
16854;SDS011;8543;54.522;18.550;2022-08-18T01:37:32;38.00;;;23.90;;
16854;SDS011;8543;54.522;18.550;2022-08-18T01:39:58;38.30;;;24.00;;
16854;SDS011;8543;54.522;18.550;2022-08-18T01:42:24;33.50;;;21.70;;
16854;SDS011;8543;54.522;18.550;2022-08-18T01:44:49;32.10;;;21.70;;
16854;SDS011;8543;54.522;18.550;2022-08-18T01:47:15;36.70;;;23.70;;
16854;SDS011;8543;54.522;18.550;2022-08-18T01:49:42;36.90;;;23.50;;
16854;SDS011;8543;54.522;18.550;2022-08-18T01:52:09;38.30;;;23.70;;
16854;SDS011;8543;54.522;18.550;2022-08-18T01:54:36;34.30;;;22.40;;
16854;SDS011;8543;54.522;18.550;2022-08-18T01:57:01;34.10;;;22.30;;
16854;SDS011;8543;54.522;18.550;2022-08-18T01:59:27;33.10;;;22.60;;
16854;SDS011;8543;54.522;18.550;2022-08-18T02:01:52;34.60;;;23.20;;
16854;SDS011;8543;54.522;18.550;2022-08-18T02:04:20;29.70;;;20.60;;
16854;SDS011;8543;54.522;18.550;2022-08-18T02:06:48;30.80;;;20.90;;
16854;SDS011;8543;54.522;18.550;2022-08-18T02:09:14;32.30;;;20.80;;
16854;SDS011;8543;54.522;18.550;2022-08-18T02:11:39;34.20;;;21.60;;
16854;SDS011;8543;54.522;18.550;2022-08-18T02:14:04;32.20;;;22.90;;
16854;SDS011;8543;54.522;18.550;2022-08-18T02:16:30;31.50;;;22.40;;
16854;SDS011;8543;54.522;18.550;2022-08-18T02:18:57;37.90;;;23.80;;
16854;SDS011;8543;54.522;18.550;2022-08-18T02:21:22;34.00;;;22.20;;
16854;SDS011;8543;54.522;18.550;2022-08-18T02:23:48;36.50;;;23.50;;
16854;SDS011;8543;54.522;18.550;2022-08-18T02:26:14;37.10;;;25.00;;
16854;SDS011;8543;54.522;18.550;2022-08-18T02:28:40;39.90;;;24.20;;
16854;SDS011;8543;54.522;18.550;2022-08-18T02:31:11;40.30;;;24.20;;
16854;SDS011;8543;54.522;18.550;2022-08-18T02:33:38;35.70;;;22.80;;
16854;SDS011;8543;54.522;18.550;2022-08-18T02:36:04;36.30;;;22.90;;
16854;SDS011;8543;54.522;18.550;2022-08-18T02:38:32;38.30;;;22.30;;
16854;SDS011;8543;54.522;18.550;2022-08-18T02:40:58;36.70;;;21.30;;
16854;SDS011;8543;54.522;18.550;2022-08-18T02:43:25;32.40;;;21.50;;
16854;SDS011;8543;54.522;18.550;2022-08-18T02:45:51;38.20;;;23.20;;
16854;SDS011;8543;54.522;18.550;2022-08-18T02:48:17;36.80;;;22.50;;
16854;SDS011;8543;54.522;18.550;2022-08-18T02:53:26;35.40;;;22.70;;
16854;SDS011;8543;54.522;18.550;2022-08-18T02:55:52;35.60;;;22.10;;
16854;SDS011;8543;54.522;18.550;2022-08-18T02:58:19;41.50;;;22.50;;
16854;SDS011;8543;54.522;18.550;2022-08-18T03:00:44;44.10;;;23.00;;
16854;SDS011;8543;54.522;18.550;2022-08-18T03:03:10;34.80;;;22.80;;
16854;SDS011;8543;54.522;18.550;2022-08-18T03:05:38;40.40;;;23.90;;
16854;SDS011;8543;54.522;18.550;2022-08-18T03:08:04;34.50;;;22.00;;
16854;SDS011;8543;54.522;18.550;2022-08-18T03:10:29;36.80;;;21.60;;
16854;SDS011;8543;54.522;18.550;2022-08-18T03:12:55;26.50;;;18.50;;
16854;SDS011;8543;54.522;18.550;2022-08-18T03:15:20;30.10;;;20.60;;
16854;SDS011;8543;54.522;18.550;2022-08-18T03:17:45;31.40;;;19.80;;
16854;SDS011;8543;54.522;18.550;2022-08-18T03:20:11;32.50;;;20.10;;
16854;SDS011;8543;54.522;18.550;2022-08-18T03:22:38;32.90;;;20.20;;
16854;SDS011;8543;54.522;18.550;2022-08-18T03:25:03;29.20;;;19.20;;
16854;SDS011;8543;54.522;18.550;2022-08-18T03:27:29;29.40;;;19.40;;
16854;SDS011;8543;54.522;18.550;2022-08-18T03:29:54;31.90;;;19.80;;
16854;SDS011;8543;54.522;18.550;2022-08-18T03:32:20;34.50;;;20.40;;
16854;SDS011;8543;54.522;18.550;2022-08-18T03:34:45;35.60;;;21.10;;
16854;SDS011;8543;54.522;18.550;2022-08-18T03:37:11;31.10;;;21.00;;
16854;SDS011;8543;54.522;18.550;2022-08-18T03:39:36;42.00;;;21.90;;
16854;SDS011;8543;54.522;18.550;2022-08-18T03:42:02;30.40;;;20.20;;
16854;SDS011;8543;54.522;18.550;2022-08-18T03:44:28;30.80;;;19.20;;
16854;SDS011;8543;54.522;18.550;2022-08-18T03:46:55;28.60;;;19.00;;
16854;SDS011;8543;54.522;18.550;2022-08-18T03:49:21;29.10;;;19.00;;
16854;SDS011;8543;54.522;18.550;2022-08-18T03:51:47;27.70;;;19.30;;
16854;SDS011;8543;54.522;18.550;2022-08-18T03:54:13;28.10;;;20.00;;
16854;SDS011;8543;54.522;18.550;2022-08-18T03:56:40;31.00;;;19.90;;
16854;SDS011;8543;54.522;18.550;2022-08-18T03:59:07;27.40;;;20.00;;
16854;SDS011;8543;54.522;18.550;2022-08-18T04:01:37;29.10;;;19.40;;
16854;SDS011;8543;54.522;18.550;2022-08-18T04:04:05;28.90;;;20.10;;
16854;SDS011;8543;54.522;18.550;2022-08-18T04:06:37;32.40;;;22.20;;
16854;SDS011;8543;54.522;18.550;2022-08-18T04:09:14;34.00;;;23.90;;
16854;SDS011;8543;54.522;18.550;2022-08-18T04:11:41;34.20;;;24.10;;
16854;SDS011;8543;54.522;18.550;2022-08-18T04:14:07;36.00;;;24.50;;
16854;SDS011;8543;54.522;18.550;2022-08-18T04:16:33;32.00;;;23.90;;
16854;SDS011;8543;54.522;18.550;2022-08-18T04:19:00;30.40;;;23.00;;
16854;SDS011;8543;54.522;18.550;2022-08-18T04:21:28;30.30;;;22.70;;
16854;SDS011;8543;54.522;18.550;2022-08-18T04:23:56;31.90;;;22.80;;
16854;SDS011;8543;54.522;18.550;2022-08-18T04:26:26;33.30;;;24.10;;
16854;SDS011;8543;54.522;18.550;2022-08-18T04:28:52;35.50;;;24.70;;
16854;SDS011;8543;54.522;18.550;2022-08-18T04:31:18;32.20;;;21.20;;
16854;SDS011;8543;54.522;18.550;2022-08-18T04:33:47;32.30;;;22.60;;
16854;SDS011;8543;54.522;18.550;2022-08-18T04:36:13;30.60;;;23.10;;
16854;SDS011;8543;54.522;18.550;2022-08-18T04:38:39;30.00;;;24.30;;
16854;SDS011;8543;54.522;18.550;2022-08-18T04:41:06;32.30;;;23.30;;
16854;SDS011;8543;54.522;18.550;2022-08-18T04:43:32;31.50;;;23.40;;
16854;SDS011;8543;54.522;18.550;2022-08-18T04:45:58;28.10;;;22.90;;
16854;SDS011;8543;54.522;18.550;2022-08-18T04:48:44;27.80;;;20.50;;
16854;SDS011;8543;54.522;18.550;2022-08-18T04:51:10;23.80;;;20.40;;
16854;SDS011;8543;54.522;18.550;2022-08-18T04:53:37;27.50;;;22.00;;
16854;SDS011;8543;54.522;18.550;2022-08-18T04:58:45;23.10;;;19.70;;
16854;SDS011;8543;54.522;18.550;2022-08-18T05:01:15;24.50;;;20.00;;
16854;SDS011;8543;54.522;18.550;2022-08-18T05:03:41;24.90;;;21.00;;
16854;SDS011;8543;54.522;18.550;2022-08-18T05:06:08;27.10;;;22.90;;
16854;SDS011;8543;54.522;18.550;2022-08-18T05:08:33;27.50;;;23.90;;
16854;SDS011;8543;54.522;18.550;2022-08-18T05:10:59;30.10;;;25.00;;
16854;SDS011;8543;54.522;18.550;2022-08-18T05:13:24;26.20;;;22.50;;
16854;SDS011;8543;54.522;18.550;2022-08-18T05:15:54;28.30;;;24.50;;
16854;SDS011;8543;54.522;18.550;2022-08-18T05:18:22;30.40;;;24.80;;
16854;SDS011;8543;54.522;18.550;2022-08-18T05:20:58;27.00;;;23.90;;
16854;SDS011;8543;54.522;18.550;2022-08-18T05:23:24;30.50;;;22.80;;
16854;SDS011;8543;54.522;18.550;2022-08-18T05:25:58;27.00;;;24.00;;
16854;SDS011;8543;54.522;18.550;2022-08-18T05:28:24;29.20;;;25.70;;
16854;SDS011;8543;54.522;18.550;2022-08-18T05:30:50;29.10;;;25.40;;
16854;SDS011;8543;54.522;18.550;2022-08-18T05:33:16;28.00;;;23.70;;
16854;SDS011;8543;54.522;18.550;2022-08-18T05:35:45;28.70;;;23.80;;
16854;SDS011;8543;54.522;18.550;2022-08-18T05:38:19;29.60;;;25.30;;
16854;SDS011;8543;54.522;18.550;2022-08-18T05:43:28;30.70;;;27.40;;
16854;SDS011;8543;54.522;18.550;2022-08-18T05:45:54;27.30;;;24.40;;
16854;SDS011;8543;54.522;18.550;2022-08-18T05:48:20;27.80;;;24.90;;
16854;SDS011;8543;54.522;18.550;2022-08-18T05:50:46;25.10;;;22.60;;
16854;SDS011;8543;54.522;18.550;2022-08-18T05:53:13;23.50;;;21.10;;
16854;SDS011;8543;54.522;18.550;2022-08-18T05:55:47;23.40;;;20.90;;
16854;SDS011;8543;54.522;18.550;2022-08-18T05:58:42;21.60;;;19.40;;
16854;SDS011;8543;54.522;18.550;2022-08-18T06:01:12;23.10;;;20.70;;
16854;SDS011;8543;54.522;18.550;2022-08-18T06:06:15;22.30;;;20.00;;
16854;SDS011;8543;54.522;18.550;2022-08-18T06:08:44;22.10;;;19.80;;
16854;SDS011;8543;54.522;18.550;2022-08-18T06:11:12;21.40;;;19.20;;
16854;SDS011;8543;54.522;18.550;2022-08-18T06:13:39;20.80;;;18.60;;
16854;SDS011;8543;54.522;18.550;2022-08-18T06:16:17;21.30;;;18.90;;
16854;SDS011;8543;54.522;18.550;2022-08-18T06:18:55;20.50;;;18.40;;
16854;SDS011;8543;54.522;18.550;2022-08-18T06:31:41;18.70;;;16.80;;
16854;SDS011;8543;54.522;18.550;2022-08-18T06:34:25;19.50;;;17.60;;
16854;SDS011;8543;54.522;18.550;2022-08-18T06:37:41;19.10;;;17.30;;
16854;SDS011;8543;54.522;18.550;2022-08-18T06:40:33;20.50;;;18.40;;
16854;SDS011;8543;54.522;18.550;2022-08-18T06:42:59;20.20;;;17.70;;
16854;SDS011;8543;54.522;18.550;2022-08-18T06:45:27;20.40;;;18.30;;
16854;SDS011;8543;54.522;18.550;2022-08-18T06:50:51;18.80;;;17.00;;
16854;SDS011;8543;54.522;18.550;2022-08-18T06:53:18;20.90;;;18.80;;
16854;SDS011;8543;54.522;18.550;2022-08-18T06:55:45;20.30;;;18.30;;
16854;SDS011;8543;54.522;18.550;2022-08-18T07:01:04;19.70;;;17.90;;
16854;SDS011;8543;54.522;18.550;2022-08-18T07:06:08;20.80;;;18.80;;
16854;SDS011;8543;54.522;18.550;2022-08-18T07:08:38;19.70;;;18.00;;
16854;SDS011;8543;54.522;18.550;2022-08-18T07:13:58;18.80;;;16.90;;
16854;SDS011;8543;54.522;18.550;2022-08-18T07:16:45;20.10;;;18.20;;
16854;SDS011;8543;54.522;18.550;2022-08-18T07:21:41;18.00;;;16.20;;
16854;SDS011;8543;54.522;18.550;2022-08-18T07:24:19;17.90;;;16.20;;
16854;SDS011;8543;54.522;18.550;2022-08-18T07:29:29;18.60;;;17.00;;
16854;SDS011;8543;54.522;18.550;2022-08-18T07:31:57;18.80;;;17.00;;
16854;SDS011;8543;54.522;18.550;2022-08-18T07:34:39;20.50;;;18.40;;
16854;SDS011;8543;54.522;18.550;2022-08-18T07:37:16;21.40;;;19.30;;
16854;SDS011;8543;54.522;18.550;2022-08-18T07:42:34;21.00;;;19.00;;
16854;SDS011;8543;54.522;18.550;2022-08-18T07:45:07;20.10;;;18.00;;
16854;SDS011;8543;54.522;18.550;2022-08-18T07:50:16;20.30;;;18.30;;
16854;SDS011;8543;54.522;18.550;2022-08-18T07:55:36;19.60;;;17.60;;
16854;SDS011;8543;54.522;18.550;2022-08-18T07:58:16;19.00;;;17.20;;
16854;SDS011;8543;54.522;18.550;2022-08-18T08:03:53;17.60;;;15.70;;
16854;SDS011;8543;54.522;18.550;2022-08-18T08:06:31;18.40;;;16.60;;
16854;SDS011;8543;54.522;18.550;2022-08-18T08:09:16;17.30;;;15.60;;
16854;SDS011;8543;54.522;18.550;2022-08-18T08:11:57;16.50;;;14.90;;
16854;SDS011;8543;54.522;18.550;2022-08-18T08:14:44;17.30;;;14.50;;
16854;SDS011;8543;54.522;18.550;2022-08-18T08:22:12;16.10;;;14.50;;
16854;SDS011;8543;54.522;18.550;2022-08-18T08:30:32;17.10;;;15.10;;
16854;SDS011;8543;54.522;18.550;2022-08-18T08:36:04;17.20;;;14.90;;
16854;SDS011;8543;54.522;18.550;2022-08-18T08:41:24;17.20;;;14.10;;
16854;SDS011;8543;54.522;18.550;2022-08-18T08:44:07;15.90;;;14.30;;
16854;SDS011;8543;54.522;18.550;2022-08-18T08:46:41;16.70;;;15.00;;
16854;SDS011;8543;54.522;18.550;2022-08-18T08:52:25;21.10;;;16.10;;
16854;SDS011;8543;54.522;18.550;2022-08-18T08:54:59;16.90;;;15.10;;
16854;SDS011;8543;54.522;18.550;2022-08-18T08:57:31;17.40;;;15.70;;
16854;SDS011;8543;54.522;18.550;2022-08-18T09:00:06;17.60;;;15.90;;
16854;SDS011;8543;54.522;18.550;2022-08-18T09:05:34;17.80;;;16.10;;
16854;SDS011;8543;54.522;18.550;2022-08-18T09:13:42;20.90;;;17.40;;
16854;SDS011;8543;54.522;18.550;2022-08-18T09:16:14;18.70;;;16.80;;
16854;SDS011;8543;54.522;18.550;2022-08-18T09:21:19;18.20;;;16.30;;
16854;SDS011;8543;54.522;18.550;2022-08-18T09:23:50;19.20;;;17.10;;
16854;SDS011;8543;54.522;18.550;2022-08-18T09:29:09;19.40;;;17.40;;
16854;SDS011;8543;54.522;18.550;2022-08-18T09:31:39;19.40;;;17.40;;
16854;SDS011;8543;54.522;18.550;2022-08-18T09:37:02;18.90;;;17.10;;
16854;SDS011;8543;54.522;18.550;2022-08-18T09:39:37;18.20;;;16.30;;
16854;SDS011;8543;54.522;18.550;2022-08-18T09:42:36;17.20;;;15.50;;
16854;SDS011;8543;54.522;18.550;2022-08-18T09:45:08;19.30;;;17.50;;
16854;SDS011;8543;54.522;18.550;2022-08-18T09:54:59;19.60;;;16.80;;
16854;SDS011;8543;54.522;18.550;2022-08-18T10:07:42;20.40;;;18.40;;
16854;SDS011;8543;54.522;18.550;2022-08-18T10:16:01;18.80;;;17.00;;
16854;SDS011;8543;54.522;18.550;2022-08-18T10:21:16;16.90;;;15.10;;
16854;SDS011;8543;54.522;18.550;2022-08-18T10:23:58;19.60;;;16.30;;
16854;SDS011;8543;54.522;18.550;2022-08-18T10:29:09;18.10;;;16.20;;
16854;SDS011;8543;54.522;18.550;2022-08-18T10:37:10;18.20;;;16.20;;
16854;SDS011;8543;54.522;18.550;2022-08-18T10:39:53;19.60;;;16.30;;
16854;SDS011;8543;54.522;18.550;2022-08-18T10:42:27;16.40;;;14.60;;
16854;SDS011;8543;54.522;18.550;2022-08-18T10:45:02;15.80;;;14.30;;
16854;SDS011;8543;54.522;18.550;2022-08-18T10:47:34;17.60;;;15.20;;
16854;SDS011;8543;54.522;18.550;2022-08-18T10:50:02;14.60;;;13.00;;
16854;SDS011;8543;54.522;18.550;2022-08-18T10:55:12;16.40;;;14.60;;
16854;SDS011;8543;54.522;18.550;2022-08-18T11:00:11;15.60;;;13.50;;
16854;SDS011;8543;54.522;18.550;2022-08-18T11:02:42;13.90;;;12.60;;
16854;SDS011;8543;54.522;18.550;2022-08-18T11:05:13;14.60;;;13.10;;
16854;SDS011;8543;54.522;18.550;2022-08-18T11:07:47;14.20;;;12.40;;
16854;SDS011;8543;54.522;18.550;2022-08-18T11:10:15;15.30;;;12.20;;
16854;SDS011;8543;54.522;18.550;2022-08-18T11:18:14;14.60;;;12.70;;
16854;SDS011;8543;54.522;18.550;2022-08-18T11:24:09;12.10;;;10.90;;
16854;SDS011;8543;54.522;18.550;2022-08-18T11:40:09;14.40;;;12.90;;
16854;SDS011;8543;54.522;18.550;2022-08-18T11:43:33;14.10;;;12.00;;
16854;SDS011;8543;54.522;18.550;2022-08-18T11:46:00;14.40;;;12.40;;
16854;SDS011;8543;54.522;18.550;2022-08-18T11:51:16;15.20;;;11.80;;
16854;SDS011;8543;54.522;18.550;2022-08-18T11:56:15;14.00;;;12.20;;
16854;SDS011;8543;54.522;18.550;2022-08-18T12:01:28;14.70;;;12.70;;
16854;SDS011;8543;54.522;18.550;2022-08-18T12:03:58;13.90;;;11.10;;
16854;SDS011;8543;54.522;18.550;2022-08-18T12:06:35;15.00;;;11.30;;
16854;SDS011;8543;54.522;18.550;2022-08-18T12:09:05;12.30;;;10.60;;
16854;SDS011;8543;54.522;18.550;2022-08-18T12:11:49;11.70;;;10.40;;
16854;SDS011;8543;54.522;18.550;2022-08-18T12:14:22;11.80;;;9.90;;
16854;SDS011;8543;54.522;18.550;2022-08-18T12:16:50;14.60;;;10.60;;
16854;SDS011;8543;54.522;18.550;2022-08-18T12:19:19;14.50;;;10.00;;
16854;SDS011;8543;54.522;18.550;2022-08-18T12:21:51;11.20;;;10.00;;
16854;SDS011;8543;54.522;18.550;2022-08-18T12:24:24;11.70;;;10.50;;
16854;SDS011;8543;54.522;18.550;2022-08-18T12:26:54;12.00;;;10.30;;
16854;SDS011;8543;54.522;18.550;2022-08-18T12:29:20;12.80;;;11.00;;
16854;SDS011;8543;54.522;18.550;2022-08-18T12:31:48;14.40;;;10.40;;
16854;SDS011;8543;54.522;18.550;2022-08-18T12:34:17;14.70;;;10.00;;
16854;SDS011;8543;54.522;18.550;2022-08-18T12:36:44;12.60;;;10.70;;
16854;SDS011;8543;54.522;18.550;2022-08-18T12:39:10;12.20;;;10.10;;
16854;SDS011;8543;54.522;18.550;2022-08-18T12:41:37;11.90;;;10.70;;
16854;SDS011;8543;54.522;18.550;2022-08-18T12:44:03;12.10;;;10.50;;
16854;SDS011;8543;54.522;18.550;2022-08-18T12:46:29;11.50;;;10.40;;
16854;SDS011;8543;54.522;18.550;2022-08-18T12:48:54;11.50;;;9.80;;
16854;SDS011;8543;54.522;18.550;2022-08-18T12:51:20;11.10;;;9.40;;
16854;SDS011;8543;54.522;18.550;2022-08-18T12:53:45;14.70;;;9.40;;
16854;SDS011;8543;54.522;18.550;2022-08-18T12:56:21;11.20;;;10.00;;
16854;SDS011;8543;54.522;18.550;2022-08-18T12:58:48;12.00;;;9.10;;
16854;SDS011;8543;54.522;18.550;2022-08-18T13:01:14;12.30;;;9.60;;
16854;SDS011;8543;54.522;18.550;2022-08-18T13:03:41;13.20;;;10.00;;
16854;SDS011;8543;54.522;18.550;2022-08-18T13:06:08;10.80;;;8.90;;
16854;SDS011;8543;54.522;18.550;2022-08-18T13:08:34;10.80;;;9.00;;
16854;SDS011;8543;54.522;18.550;2022-08-18T13:10:59;10.50;;;9.30;;
16854;SDS011;8543;54.522;18.550;2022-08-18T13:13:25;10.20;;;9.10;;
16854;SDS011;8543;54.522;18.550;2022-08-18T13:15:50;11.90;;;9.40;;
16854;SDS011;8543;54.522;18.550;2022-08-18T13:18:18;13.90;;;10.10;;
16854;SDS011;8543;54.522;18.550;2022-08-18T13:20:43;10.90;;;9.50;;
16854;SDS011;8543;54.522;18.550;2022-08-18T13:23:09;11.40;;;9.30;;
16854;SDS011;8543;54.522;18.550;2022-08-18T13:25:34;10.50;;;8.90;;
16854;SDS011;8543;54.522;18.550;2022-08-18T13:28:00;12.30;;;8.60;;
16854;SDS011;8543;54.522;18.550;2022-08-18T13:30:26;10.30;;;9.00;;
16854;SDS011;8543;54.522;18.550;2022-08-18T13:32:51;11.70;;;9.40;;
16854;SDS011;8543;54.522;18.550;2022-08-18T13:35:17;10.10;;;9.10;;
16854;SDS011;8543;54.522;18.550;2022-08-18T13:37:42;9.70;;;8.80;;
16854;SDS011;8543;54.522;18.550;2022-08-18T13:40:08;10.40;;;9.30;;
16854;SDS011;8543;54.522;18.550;2022-08-18T13:42:41;10.30;;;8.80;;
16854;SDS011;8543;54.522;18.550;2022-08-18T13:45:09;9.90;;;8.30;;
16854;SDS011;8543;54.522;18.550;2022-08-18T13:47:36;9.90;;;8.20;;
16854;SDS011;8543;54.522;18.550;2022-08-18T13:50:02;10.70;;;9.00;;
16854;SDS011;8543;54.522;18.550;2022-08-18T13:52:28;10.80;;;8.70;;
16854;SDS011;8543;54.522;18.550;2022-08-18T13:54:53;9.90;;;8.50;;
16854;SDS011;8543;54.522;18.550;2022-08-18T13:57:19;11.50;;;9.10;;
16854;SDS011;8543;54.522;18.550;2022-08-18T13:59:44;14.70;;;9.50;;
16854;SDS011;8543;54.522;18.550;2022-08-18T14:02:09;10.90;;;9.70;;
16854;SDS011;8543;54.522;18.550;2022-08-18T14:04:36;13.20;;;9.20;;
16854;SDS011;8543;54.522;18.550;2022-08-18T14:07:02;12.80;;;9.00;;
16854;SDS011;8543;54.522;18.550;2022-08-18T14:09:29;11.90;;;8.30;;
16854;SDS011;8543;54.522;18.550;2022-08-18T14:11:55;10.90;;;9.00;;
16854;SDS011;8543;54.522;18.550;2022-08-18T14:14:21;9.50;;;7.40;;
16854;SDS011;8543;54.522;18.550;2022-08-18T14:16:47;10.90;;;8.60;;
16854;SDS011;8543;54.522;18.550;2022-08-18T14:19:13;11.40;;;8.80;;
16854;SDS011;8543;54.522;18.550;2022-08-18T14:21:57;12.40;;;8.70;;
16854;SDS011;8543;54.522;18.550;2022-08-18T14:24:41;11.00;;;8.70;;
16854;SDS011;8543;54.522;18.550;2022-08-18T14:29:53;9.80;;;7.80;;
16854;SDS011;8543;54.522;18.550;2022-08-18T14:32:19;9.90;;;8.40;;
16854;SDS011;8543;54.522;18.550;2022-08-18T14:34:51;9.60;;;8.30;;
16854;SDS011;8543;54.522;18.550;2022-08-18T14:37:17;10.80;;;7.80;;
16854;SDS011;8543;54.522;18.550;2022-08-18T14:39:43;13.80;;;7.40;;
16854;SDS011;8543;54.522;18.550;2022-08-18T14:42:10;10.70;;;7.80;;
16854;SDS011;8543;54.522;18.550;2022-08-18T14:44:37;11.60;;;7.10;;
16854;SDS011;8543;54.522;18.550;2022-08-18T14:47:02;9.80;;;8.20;;
16854;SDS011;8543;54.522;18.550;2022-08-18T14:49:28;11.50;;;7.70;;
16854;SDS011;8543;54.522;18.550;2022-08-18T14:51:58;11.10;;;7.90;;
16854;SDS011;8543;54.522;18.550;2022-08-18T14:54:24;12.30;;;8.00;;
16854;SDS011;8543;54.522;18.550;2022-08-18T14:56:50;11.40;;;7.50;;
16854;SDS011;8543;54.522;18.550;2022-08-18T14:59:16;8.80;;;6.50;;
16854;SDS011;8543;54.522;18.550;2022-08-18T15:01:41;7.50;;;6.50;;
16854;SDS011;8543;54.522;18.550;2022-08-18T15:04:07;9.50;;;7.60;;
16854;SDS011;8543;54.522;18.550;2022-08-18T15:06:34;8.10;;;6.60;;
16854;SDS011;8543;54.522;18.550;2022-08-18T15:09:00;9.60;;;7.30;;
16854;SDS011;8543;54.522;18.550;2022-08-18T15:11:25;13.00;;;7.60;;
16854;SDS011;8543;54.522;18.550;2022-08-18T15:13:51;10.10;;;7.30;;
16854;SDS011;8543;54.522;18.550;2022-08-18T15:16:16;10.10;;;8.40;;
16854;SDS011;8543;54.522;18.550;2022-08-18T15:18:42;11.10;;;8.10;;
16854;SDS011;8543;54.522;18.550;2022-08-18T15:21:09;10.70;;;7.70;;
16854;SDS011;8543;54.522;18.550;2022-08-18T15:23:54;12.90;;;8.20;;
16854;SDS011;8543;54.522;18.550;2022-08-18T15:26:38;11.60;;;8.80;;
16854;SDS011;8543;54.522;18.550;2022-08-18T15:29:06;10.80;;;8.10;;
16854;SDS011;8543;54.522;18.550;2022-08-18T15:31:35;11.00;;;8.60;;
16854;SDS011;8543;54.522;18.550;2022-08-18T15:34:01;10.00;;;7.90;;
16854;SDS011;8543;54.522;18.550;2022-08-18T15:36:27;9.80;;;8.00;;
16854;SDS011;8543;54.522;18.550;2022-08-18T15:38:56;10.60;;;8.20;;
16854;SDS011;8543;54.522;18.550;2022-08-18T15:41:36;12.30;;;7.90;;
16854;SDS011;8543;54.522;18.550;2022-08-18T15:44:04;10.50;;;8.10;;
16854;SDS011;8543;54.522;18.550;2022-08-18T15:46:32;9.50;;;8.10;;
16854;SDS011;8543;54.522;18.550;2022-08-18T15:48:59;11.80;;;8.80;;
16854;SDS011;8543;54.522;18.550;2022-08-18T15:51:25;10.40;;;7.60;;
16854;SDS011;8543;54.522;18.550;2022-08-18T15:53:50;13.00;;;8.30;;
16854;SDS011;8543;54.522;18.550;2022-08-18T15:56:17;10.80;;;8.90;;
16854;SDS011;8543;54.522;18.550;2022-08-18T15:58:44;11.50;;;8.10;;
16854;SDS011;8543;54.522;18.550;2022-08-18T16:01:11;12.40;;;8.30;;
16854;SDS011;8543;54.522;18.550;2022-08-18T16:03:37;10.60;;;7.20;;
16854;SDS011;8543;54.522;18.550;2022-08-18T16:06:03;10.10;;;7.90;;
16854;SDS011;8543;54.522;18.550;2022-08-18T16:08:29;10.30;;;7.70;;
16854;SDS011;8543;54.522;18.550;2022-08-18T16:10:55;8.20;;;7.40;;
16854;SDS011;8543;54.522;18.550;2022-08-18T16:13:21;10.00;;;7.60;;
16854;SDS011;8543;54.522;18.550;2022-08-18T16:15:48;9.70;;;7.80;;
16854;SDS011;8543;54.522;18.550;2022-08-18T16:18:15;10.70;;;8.10;;
16854;SDS011;8543;54.522;18.550;2022-08-18T16:20:46;9.80;;;7.90;;
16854;SDS011;8543;54.522;18.550;2022-08-18T16:23:12;10.50;;;7.30;;
16854;SDS011;8543;54.522;18.550;2022-08-18T16:25:38;11.50;;;7.40;;
16854;SDS011;8543;54.522;18.550;2022-08-18T16:28:09;9.50;;;7.20;;
16854;SDS011;8543;54.522;18.550;2022-08-18T16:30:37;10.80;;;6.60;;
16854;SDS011;8543;54.522;18.550;2022-08-18T16:33:04;9.50;;;7.00;;
16854;SDS011;8543;54.522;18.550;2022-08-18T16:35:30;10.30;;;7.10;;
16854;SDS011;8543;54.522;18.550;2022-08-18T16:38:01;7.80;;;6.80;;
16854;SDS011;8543;54.522;18.550;2022-08-18T16:40:36;8.60;;;6.80;;
16854;SDS011;8543;54.522;18.550;2022-08-18T16:43:01;11.00;;;7.70;;
16854;SDS011;8543;54.522;18.550;2022-08-18T16:45:27;10.10;;;7.40;;
16854;SDS011;8543;54.522;18.550;2022-08-18T16:47:55;11.00;;;7.30;;
16854;SDS011;8543;54.522;18.550;2022-08-18T16:50:21;13.50;;;7.40;;
16854;SDS011;8543;54.522;18.550;2022-08-18T16:52:48;9.50;;;7.20;;
16854;SDS011;8543;54.522;18.550;2022-08-18T16:55:17;10.30;;;6.70;;
16854;SDS011;8543;54.522;18.550;2022-08-18T16:57:42;9.20;;;6.40;;
16854;SDS011;8543;54.522;18.550;2022-08-18T17:00:28;9.20;;;6.80;;
16854;SDS011;8543;54.522;18.550;2022-08-18T17:03:15;9.60;;;7.10;;
16854;SDS011;8543;54.522;18.550;2022-08-18T17:06:04;10.40;;;7.00;;
16854;SDS011;8543;54.522;18.550;2022-08-18T17:08:31;11.50;;;7.60;;
16854;SDS011;8543;54.522;18.550;2022-08-18T17:11:09;8.40;;;7.10;;
16854;SDS011;8543;54.522;18.550;2022-08-18T17:13:41;10.30;;;7.20;;
16854;SDS011;8543;54.522;18.550;2022-08-18T17:16:07;9.90;;;7.40;;
16854;SDS011;8543;54.522;18.550;2022-08-18T17:18:32;10.00;;;6.70;;
16854;SDS011;8543;54.522;18.550;2022-08-18T17:21:00;13.40;;;6.60;;
16854;SDS011;8543;54.522;18.550;2022-08-18T17:23:28;9.20;;;7.10;;